sensor_id;sensor_type;location;lat;lon;timestamp;P1;durP1;ratioP1;P2;durP2;ratioP2
64643;SDS011;51056;50.330;7.914;2023-07-09T00:00:15;9.82;;;4.75;;
64643;SDS011;51056;50.330;7.914;2023-07-09T00:03:20;11.98;;;4.53;;
64643;SDS011;51056;50.330;7.914;2023-07-09T00:06:24;9.75;;;4.78;;
64643;SDS011;51056;50.330;7.914;2023-07-09T00:09:28;7.75;;;4.65;;
64643;SDS011;51056;50.330;7.914;2023-07-09T00:12:31;7.07;;;4.70;;
64643;SDS011;51056;50.330;7.914;2023-07-09T00:15:35;11.05;;;4.68;;
64643;SDS011;51056;50.330;7.914;2023-07-09T00:18:40;8.15;;;4.28;;
64643;SDS011;51056;50.330;7.914;2023-07-09T00:21:44;8.55;;;4.78;;
64643;SDS011;51056;50.330;7.914;2023-07-09T00:24:50;6.80;;;4.03;;
64643;SDS011;51056;50.330;7.914;2023-07-09T00:27:59;6.70;;;4.85;;
64643;SDS011;51056;50.330;7.914;2023-07-09T00:31:03;9.07;;;5.35;;
64643;SDS011;51056;50.330;7.914;2023-07-09T00:34:11;11.48;;;6.63;;
64643;SDS011;51056;50.330;7.914;2023-07-09T00:37:18;11.02;;;5.35;;
64643;SDS011;51056;50.330;7.914;2023-07-09T00:40:24;9.13;;;5.18;;
64643;SDS011;51056;50.330;7.914;2023-07-09T00:43:35;7.55;;;5.50;;
64643;SDS011;51056;50.330;7.914;2023-07-09T00:49:52;8.43;;;4.20;;
64643;SDS011;51056;50.330;7.914;2023-07-09T00:53:49;10.70;;;4.47;;
64643;SDS011;51056;50.330;7.914;2023-07-09T00:56:38;6.30;;;4.30;;
64643;SDS011;51056;50.330;7.914;2023-07-09T00:59:54;6.95;;;4.03;;
64643;SDS011;51056;50.330;7.914;2023-07-09T01:03:02;5.82;;;4.25;;
64643;SDS011;51056;50.330;7.914;2023-07-09T01:06:07;8.32;;;4.40;;
64643;SDS011;51056;50.330;7.914;2023-07-09T01:09:15;7.75;;;4.63;;
64643;SDS011;51056;50.330;7.914;2023-07-09T01:27:09;6.93;;;4.43;;
64643;SDS011;51056;50.330;7.914;2023-07-09T01:33:43;8.95;;;4.97;;
64643;SDS011;51056;50.330;7.914;2023-07-09T01:36:50;6.50;;;4.75;;
64643;SDS011;51056;50.330;7.914;2023-07-09T01:39:54;6.93;;;4.22;;
64643;SDS011;51056;50.330;7.914;2023-07-09T01:42:58;11.15;;;5.57;;
64643;SDS011;51056;50.330;7.914;2023-07-09T01:46:03;11.25;;;5.00;;
64643;SDS011;51056;50.330;7.914;2023-07-09T01:49:11;8.90;;;4.50;;
64643;SDS011;51056;50.330;7.914;2023-07-09T01:52:15;6.22;;;3.83;;
64643;SDS011;51056;50.330;7.914;2023-07-09T01:55:22;6.78;;;4.53;;
64643;SDS011;51056;50.330;7.914;2023-07-09T01:58:25;8.05;;;4.75;;
64643;SDS011;51056;50.330;7.914;2023-07-09T02:01:29;7.85;;;4.57;;
64643;SDS011;51056;50.330;7.914;2023-07-09T02:04:33;8.43;;;4.35;;
64643;SDS011;51056;50.330;7.914;2023-07-09T02:07:36;6.55;;;4.80;;
64643;SDS011;51056;50.330;7.914;2023-07-09T02:10:43;7.68;;;4.32;;
64643;SDS011;51056;50.330;7.914;2023-07-09T02:13:52;6.22;;;4.22;;
64643;SDS011;51056;50.330;7.914;2023-07-09T02:16:57;7.45;;;4.85;;
64643;SDS011;51056;50.330;7.914;2023-07-09T02:20:01;8.05;;;4.47;;
64643;SDS011;51056;50.330;7.914;2023-07-09T02:23:07;7.68;;;5.07;;
64643;SDS011;51056;50.330;7.914;2023-07-09T02:26:11;8.63;;;3.75;;
64643;SDS011;51056;50.330;7.914;2023-07-09T02:29:14;9.68;;;4.25;;
64643;SDS011;51056;50.330;7.914;2023-07-09T02:32:19;11.05;;;5.03;;
64643;SDS011;51056;50.330;7.914;2023-07-09T02:35:25;9.80;;;4.03;;
64643;SDS011;51056;50.330;7.914;2023-07-09T02:38:28;9.20;;;4.38;;
64643;SDS011;51056;50.330;7.914;2023-07-09T02:41:32;8.32;;;4.53;;
64643;SDS011;51056;50.330;7.914;2023-07-09T02:44:39;9.25;;;4.45;;
64643;SDS011;51056;50.330;7.914;2023-07-09T02:47:46;7.75;;;3.85;;
64643;SDS011;51056;50.330;7.914;2023-07-09T02:50:50;10.32;;;4.40;;
64643;SDS011;51056;50.330;7.914;2023-07-09T02:53:57;9.90;;;4.05;;
64643;SDS011;51056;50.330;7.914;2023-07-09T02:57:03;8.43;;;4.65;;
64643;SDS011;51056;50.330;7.914;2023-07-09T03:00:10;6.72;;;4.28;;
64643;SDS011;51056;50.330;7.914;2023-07-09T03:03:14;7.57;;;4.70;;
64643;SDS011;51056;50.330;7.914;2023-07-09T03:06:18;7.70;;;4.60;;
64643;SDS011;51056;50.330;7.914;2023-07-09T03:09:24;11.23;;;4.72;;
64643;SDS011;51056;50.330;7.914;2023-07-09T03:12:28;8.07;;;4.13;;
64643;SDS011;51056;50.330;7.914;2023-07-09T03:15:35;7.78;;;4.15;;
64643;SDS011;51056;50.330;7.914;2023-07-09T03:18:39;8.32;;;4.47;;
64643;SDS011;51056;50.330;7.914;2023-07-09T03:21:46;8.98;;;4.47;;
64643;SDS011;51056;50.330;7.914;2023-07-09T03:24:49;7.82;;;4.30;;
64643;SDS011;51056;50.330;7.914;2023-07-09T03:27:52;9.23;;;4.13;;
64643;SDS011;51056;50.330;7.914;2023-07-09T03:30:56;6.00;;;4.28;;
64643;SDS011;51056;50.330;7.914;2023-07-09T03:34:01;7.97;;;4.55;;
64643;SDS011;51056;50.330;7.914;2023-07-09T03:37:04;7.40;;;4.40;;
64643;SDS011;51056;50.330;7.914;2023-07-09T03:40:09;11.15;;;4.57;;
64643;SDS011;51056;50.330;7.914;2023-07-09T03:43:23;8.57;;;4.57;;
64643;SDS011;51056;50.330;7.914;2023-07-09T03:46:29;6.28;;;4.22;;
64643;SDS011;51056;50.330;7.914;2023-07-09T03:49:33;5.80;;;3.90;;
64643;SDS011;51056;50.330;7.914;2023-07-09T03:52:37;8.25;;;4.65;;
64643;SDS011;51056;50.330;7.914;2023-07-09T03:55:40;8.43;;;4.65;;
64643;SDS011;51056;50.330;7.914;2023-07-09T03:58:45;6.68;;;4.32;;
64643;SDS011;51056;50.330;7.914;2023-07-09T04:01:52;7.28;;;4.47;;
64643;SDS011;51056;50.330;7.914;2023-07-09T04:04:56;9.88;;;4.00;;
64643;SDS011;51056;50.330;7.914;2023-07-09T04:08:01;9.90;;;5.32;;
64643;SDS011;51056;50.330;7.914;2023-07-09T04:11:04;7.97;;;4.18;;
64643;SDS011;51056;50.330;7.914;2023-07-09T04:14:10;11.30;;;4.15;;
64643;SDS011;51056;50.330;7.914;2023-07-09T04:17:13;7.70;;;4.43;;
64643;SDS011;51056;50.330;7.914;2023-07-09T04:20:16;6.20;;;4.13;;
64643;SDS011;51056;50.330;7.914;2023-07-09T04:23:20;7.85;;;4.28;;
64643;SDS011;51056;50.330;7.914;2023-07-09T04:26:24;8.07;;;4.32;;
64643;SDS011;51056;50.330;7.914;2023-07-09T04:29:34;8.25;;;4.30;;
64643;SDS011;51056;50.330;7.914;2023-07-09T04:32:37;11.73;;;5.22;;
64643;SDS011;51056;50.330;7.914;2023-07-09T04:35:41;8.27;;;4.80;;
64643;SDS011;51056;50.330;7.914;2023-07-09T04:38:47;6.03;;;3.72;;
64643;SDS011;51056;50.330;7.914;2023-07-09T04:41:51;7.43;;;4.45;;
64643;SDS011;51056;50.330;7.914;2023-07-09T04:44:55;13.35;;;4.63;;
64643;SDS011;51056;50.330;7.914;2023-07-09T04:48:05;8.63;;;4.88;;
64643;SDS011;51056;50.330;7.914;2023-07-09T04:51:09;7.72;;;4.40;;
64643;SDS011;51056;50.330;7.914;2023-07-09T04:54:12;7.35;;;4.13;;
64643;SDS011;51056;50.330;7.914;2023-07-09T04:57:19;8.02;;;4.70;;
64643;SDS011;51056;50.330;7.914;2023-07-09T05:00:25;7.95;;;3.85;;
64643;SDS011;51056;50.330;7.914;2023-07-09T05:03:30;10.85;;;4.57;;
64643;SDS011;51056;50.330;7.914;2023-07-09T05:06:34;8.38;;;4.13;;
64643;SDS011;51056;50.330;7.914;2023-07-09T05:09:40;6.07;;;4.03;;
64643;SDS011;51056;50.330;7.914;2023-07-09T05:12:49;8.52;;;3.88;;
64643;SDS011;51056;50.330;7.914;2023-07-09T05:15:55;9.13;;;4.65;;
64643;SDS011;51056;50.330;7.914;2023-07-09T05:18:58;8.48;;;4.00;;
64643;SDS011;51056;50.330;7.914;2023-07-09T05:22:03;7.78;;;4.32;;
64643;SDS011;51056;50.330;7.914;2023-07-09T05:25:06;8.70;;;3.90;;
64643;SDS011;51056;50.330;7.914;2023-07-09T05:28:12;7.05;;;4.60;;
64643;SDS011;51056;50.330;7.914;2023-07-09T05:31:16;8.05;;;4.10;;
64643;SDS011;51056;50.330;7.914;2023-07-09T05:34:19;8.27;;;4.25;;
64643;SDS011;51056;50.330;7.914;2023-07-09T05:37:25;8.95;;;4.75;;
64643;SDS011;51056;50.330;7.914;2023-07-09T05:40:28;7.22;;;4.13;;
64643;SDS011;51056;50.330;7.914;2023-07-09T05:43:32;10.23;;;4.18;;
64643;SDS011;51056;50.330;7.914;2023-07-09T05:46:35;8.75;;;4.00;;
64643;SDS011;51056;50.330;7.914;2023-07-09T05:49:40;6.43;;;4.18;;
64643;SDS011;51056;50.330;7.914;2023-07-09T05:52:44;8.18;;;4.25;;
64643;SDS011;51056;50.330;7.914;2023-07-09T05:55:48;11.00;;;4.10;;
64643;SDS011;51056;50.330;7.914;2023-07-09T05:58:59;8.32;;;4.20;;
64643;SDS011;51056;50.330;7.914;2023-07-09T06:02:02;6.85;;;4.22;;
64643;SDS011;51056;50.330;7.914;2023-07-09T06:05:10;6.47;;;4.10;;
64643;SDS011;51056;50.330;7.914;2023-07-09T06:08:13;7.13;;;4.25;;
64643;SDS011;51056;50.330;7.914;2023-07-09T06:11:16;10.05;;;4.68;;
64643;SDS011;51056;50.330;7.914;2023-07-09T06:14:20;6.32;;;4.13;;
64643;SDS011;51056;50.330;7.914;2023-07-09T06:17:27;9.88;;;4.85;;
64643;SDS011;51056;50.330;7.914;2023-07-09T06:20:30;6.47;;;4.53;;
64643;SDS011;51056;50.330;7.914;2023-07-09T06:23:36;8.07;;;4.50;;
64643;SDS011;51056;50.330;7.914;2023-07-09T06:26:40;8.55;;;4.07;;
64643;SDS011;51056;50.330;7.914;2023-07-09T06:29:43;9.65;;;4.63;;
64643;SDS011;51056;50.330;7.914;2023-07-09T06:32:46;9.00;;;5.82;;
64643;SDS011;51056;50.330;7.914;2023-07-09T06:35:51;9.15;;;5.30;;
64643;SDS011;51056;50.330;7.914;2023-07-09T06:39:00;10.07;;;4.63;;
64643;SDS011;51056;50.330;7.914;2023-07-09T06:42:10;12.07;;;5.20;;
64643;SDS011;51056;50.330;7.914;2023-07-09T06:45:39;7.60;;;4.90;;
64643;SDS011;51056;50.330;7.914;2023-07-09T06:49:04;10.20;;;5.10;;
64643;SDS011;51056;50.330;7.914;2023-07-09T06:52:10;7.65;;;4.70;;
64643;SDS011;51056;50.330;7.914;2023-07-09T06:55:16;9.60;;;5.32;;
64643;SDS011;51056;50.330;7.914;2023-07-09T06:58:24;10.45;;;5.40;;
64643;SDS011;51056;50.330;7.914;2023-07-09T07:01:30;13.13;;;5.28;;
64643;SDS011;51056;50.330;7.914;2023-07-09T07:04:34;10.02;;;4.93;;
64643;SDS011;51056;50.330;7.914;2023-07-09T07:07:37;7.85;;;4.55;;
64643;SDS011;51056;50.330;7.914;2023-07-09T07:10:47;8.50;;;4.82;;
64643;SDS011;51056;50.330;7.914;2023-07-09T07:13:51;8.23;;;4.72;;
64643;SDS011;51056;50.330;7.914;2023-07-09T07:16:55;9.55;;;5.22;;
64643;SDS011;51056;50.330;7.914;2023-07-09T07:19:59;9.32;;;4.60;;
64643;SDS011;51056;50.330;7.914;2023-07-09T07:23:03;7.38;;;4.10;;
64643;SDS011;51056;50.330;7.914;2023-07-09T07:26:06;9.88;;;4.75;;
64643;SDS011;51056;50.330;7.914;2023-07-09T07:29:12;8.90;;;4.88;;
64643;SDS011;51056;50.330;7.914;2023-07-09T07:32:15;9.38;;;4.60;;
64643;SDS011;51056;50.330;7.914;2023-07-09T07:35:18;7.38;;;4.40;;
64643;SDS011;51056;50.330;7.914;2023-07-09T07:38:22;9.73;;;4.90;;
64643;SDS011;51056;50.330;7.914;2023-07-09T07:41:25;8.52;;;4.32;;
64643;SDS011;51056;50.330;7.914;2023-07-09T07:44:31;5.93;;;4.40;;
64643;SDS011;51056;50.330;7.914;2023-07-09T07:47:34;7.75;;;4.80;;
64643;SDS011;51056;50.330;7.914;2023-07-09T07:50:38;7.10;;;4.43;;
64643;SDS011;51056;50.330;7.914;2023-07-09T07:53:43;8.13;;;4.28;;
64643;SDS011;51056;50.330;7.914;2023-07-09T07:56:46;5.47;;;4.43;;
64643;SDS011;51056;50.330;7.914;2023-07-09T07:59:50;6.10;;;4.20;;
64643;SDS011;51056;50.330;7.914;2023-07-09T08:02:53;6.28;;;4.60;;
64643;SDS011;51056;50.330;7.914;2023-07-09T08:05:58;9.65;;;5.00;;
64643;SDS011;51056;50.330;7.914;2023-07-09T08:09:03;7.90;;;4.95;;
64643;SDS011;51056;50.330;7.914;2023-07-09T08:12:06;8.52;;;4.78;;
64643;SDS011;51056;50.330;7.914;2023-07-09T08:15:15;9.68;;;4.90;;
64643;SDS011;51056;50.330;7.914;2023-07-09T08:18:19;6.40;;;4.40;;
64643;SDS011;51056;50.330;7.914;2023-07-09T08:21:25;9.30;;;4.13;;
64643;SDS011;51056;50.330;7.914;2023-07-09T08:24:32;9.38;;;4.63;;
64643;SDS011;51056;50.330;7.914;2023-07-09T08:27:36;6.85;;;4.65;;
64643;SDS011;51056;50.330;7.914;2023-07-09T08:30:39;10.27;;;4.60;;
64643;SDS011;51056;50.330;7.914;2023-07-09T08:33:42;6.15;;;4.40;;
64643;SDS011;51056;50.330;7.914;2023-07-09T08:36:49;10.50;;;5.10;;
64643;SDS011;51056;50.330;7.914;2023-07-09T08:39:56;8.85;;;4.88;;
64643;SDS011;51056;50.330;7.914;2023-07-09T08:43:02;7.60;;;4.82;;
64643;SDS011;51056;50.330;7.914;2023-07-09T08:49:42;9.05;;;4.30;;
64643;SDS011;51056;50.330;7.914;2023-07-09T08:52:55;11.35;;;4.70;;
64643;SDS011;51056;50.330;7.914;2023-07-09T08:56:02;7.90;;;4.72;;
64643;SDS011;51056;50.330;7.914;2023-07-09T08:59:07;10.00;;;5.20;;
64643;SDS011;51056;50.330;7.914;2023-07-09T09:02:29;6.57;;;4.38;;
64643;SDS011;51056;50.330;7.914;2023-07-09T09:05:39;10.95;;;4.75;;
64643;SDS011;51056;50.330;7.914;2023-07-09T09:12:28;14.50;;;6.40;;
64643;SDS011;51056;50.330;7.914;2023-07-09T09:15:44;10.88;;;4.38;;
64643;SDS011;51056;50.330;7.914;2023-07-09T09:18:49;8.75;;;4.25;;
64643;SDS011;51056;50.330;7.914;2023-07-09T09:21:58;7.88;;;4.60;;
64643;SDS011;51056;50.330;7.914;2023-07-09T09:25:15;12.30;;;5.05;;
64643;SDS011;51056;50.330;7.914;2023-07-09T09:28:19;9.30;;;4.70;;
64643;SDS011;51056;50.330;7.914;2023-07-09T09:31:29;11.02;;;4.68;;
64643;SDS011;51056;50.330;7.914;2023-07-09T09:34:35;9.68;;;4.60;;
64643;SDS011;51056;50.330;7.914;2023-07-09T09:37:39;9.07;;;4.78;;
64643;SDS011;51056;50.330;7.914;2023-07-09T09:40:48;6.15;;;4.35;;
64643;SDS011;51056;50.330;7.914;2023-07-09T09:43:53;9.98;;;4.35;;
64643;SDS011;51056;50.330;7.914;2023-07-09T09:46:57;10.88;;;4.03;;
64643;SDS011;51056;50.330;7.914;2023-07-09T09:50:02;7.72;;;4.07;;
64643;SDS011;51056;50.330;7.914;2023-07-09T09:53:06;8.27;;;4.20;;
64643;SDS011;51056;50.330;7.914;2023-07-09T09:56:19;6.57;;;4.10;;
64643;SDS011;51056;50.330;7.914;2023-07-09T09:59:29;6.63;;;4.35;;
64643;SDS011;51056;50.330;7.914;2023-07-09T10:02:38;7.50;;;4.15;;
64643;SDS011;51056;50.330;7.914;2023-07-09T10:05:50;7.43;;;4.45;;
64643;SDS011;51056;50.330;7.914;2023-07-09T10:09:04;5.97;;;3.90;;
64643;SDS011;51056;50.330;7.914;2023-07-09T10:15:41;5.70;;;3.35;;
64643;SDS011;51056;50.330;7.914;2023-07-09T10:26:02;7.30;;;3.60;;
64643;SDS011;51056;50.330;7.914;2023-07-09T10:39:41;6.30;;;3.30;;
64643;SDS011;51056;50.330;7.914;2023-07-09T10:42:50;5.55;;;3.10;;
64643;SDS011;51056;50.330;7.914;2023-07-09T10:46:11;4.88;;;2.95;;
64643;SDS011;51056;50.330;7.914;2023-07-09T10:49:20;6.93;;;3.65;;
64643;SDS011;51056;50.330;7.914;2023-07-09T10:52:25;9.07;;;3.55;;
64643;SDS011;51056;50.330;7.914;2023-07-09T11:01:58;8.13;;;4.05;;
64643;SDS011;51056;50.330;7.914;2023-07-09T11:05:09;6.00;;;4.15;;
64643;SDS011;51056;50.330;7.914;2023-07-09T11:08:17;9.20;;;3.47;;
64643;SDS011;51056;50.330;7.914;2023-07-09T11:11:45;8.32;;;4.22;;
64643;SDS011;51056;50.330;7.914;2023-07-09T11:19:06;9.48;;;4.18;;
64643;SDS011;51056;50.330;7.914;2023-07-09T11:26:02;6.03;;;3.85;;
64643;SDS011;51056;50.330;7.914;2023-07-09T11:29:23;9.80;;;4.00;;
64643;SDS011;51056;50.330;7.914;2023-07-09T11:32:27;4.28;;;3.42;;
64643;SDS011;51056;50.330;7.914;2023-07-09T11:35:46;8.25;;;4.13;;
64643;SDS011;51056;50.330;7.914;2023-07-09T11:38:59;14.50;;;5.85;;
64643;SDS011;51056;50.330;7.914;2023-07-09T11:42:03;11.18;;;5.95;;
64643;SDS011;51056;50.330;7.914;2023-07-09T11:45:30;7.82;;;4.05;;
64643;SDS011;51056;50.330;7.914;2023-07-09T11:48:35;6.53;;;3.72;;
64643;SDS011;51056;50.330;7.914;2023-07-09T11:51:40;7.13;;;3.90;;
64643;SDS011;51056;50.330;7.914;2023-07-09T11:54:54;6.45;;;4.47;;
64643;SDS011;51056;50.330;7.914;2023-07-09T11:58:01;6.22;;;3.78;;
64643;SDS011;51056;50.330;7.914;2023-07-09T12:01:09;8.38;;;3.85;;
64643;SDS011;51056;50.330;7.914;2023-07-09T12:04:20;7.53;;;3.47;;
64643;SDS011;51056;50.330;7.914;2023-07-09T12:07:27;6.10;;;3.40;;
64643;SDS011;51056;50.330;7.914;2023-07-09T12:10:37;5.55;;;3.35;;
64643;SDS011;51056;50.330;7.914;2023-07-09T12:13:41;8.85;;;4.05;;
64643;SDS011;51056;50.330;7.914;2023-07-09T12:16:51;8.93;;;4.28;;
64643;SDS011;51056;50.330;7.914;2023-07-09T12:19:56;6.38;;;3.30;;
64643;SDS011;51056;50.330;7.914;2023-07-09T12:23:00;6.93;;;4.13;;
64643;SDS011;51056;50.330;7.914;2023-07-09T12:26:24;8.90;;;3.55;;
64643;SDS011;51056;50.330;7.914;2023-07-09T12:29:29;6.50;;;3.85;;
64643;SDS011;51056;50.330;7.914;2023-07-09T12:32:42;9.52;;;4.20;;
64643;SDS011;51056;50.330;7.914;2023-07-09T12:35:48;9.20;;;4.22;;
64643;SDS011;51056;50.330;7.914;2023-07-09T12:39:01;7.90;;;3.38;;
64643;SDS011;51056;50.330;7.914;2023-07-09T12:42:17;7.53;;;3.92;;
64643;SDS011;51056;50.330;7.914;2023-07-09T12:45:23;6.32;;;3.63;;
64643;SDS011;51056;50.330;7.914;2023-07-09T12:48:28;6.10;;;3.80;;
64643;SDS011;51056;50.330;7.914;2023-07-09T12:52:00;9.70;;;3.90;;
64643;SDS011;51056;50.330;7.914;2023-07-09T12:55:04;9.05;;;3.85;;
64643;SDS011;51056;50.330;7.914;2023-07-09T12:58:09;9.45;;;4.05;;
64643;SDS011;51056;50.330;7.914;2023-07-09T13:01:16;9.55;;;4.45;;
64643;SDS011;51056;50.330;7.914;2023-07-09T13:04:20;11.88;;;4.43;;
64643;SDS011;51056;50.330;7.914;2023-07-09T13:10:38;7.22;;;3.50;;
64643;SDS011;51056;50.330;7.914;2023-07-09T13:13:53;6.68;;;3.72;;
64643;SDS011;51056;50.330;7.914;2023-07-09T13:17:07;6.70;;;3.92;;
64643;SDS011;51056;50.330;7.914;2023-07-09T13:20:12;10.52;;;4.10;;
64643;SDS011;51056;50.330;7.914;2023-07-09T13:23:24;8.63;;;4.38;;
64643;SDS011;51056;50.330;7.914;2023-07-09T13:26:33;8.48;;;3.78;;
64643;SDS011;51056;50.330;7.914;2023-07-09T13:29:36;10.35;;;3.90;;
64643;SDS011;51056;50.330;7.914;2023-07-09T13:32:51;6.70;;;4.20;;
64643;SDS011;51056;50.330;7.914;2023-07-09T13:36:01;8.00;;;3.78;;
64643;SDS011;51056;50.330;7.914;2023-07-09T13:39:10;7.60;;;4.10;;
64643;SDS011;51056;50.330;7.914;2023-07-09T13:42:16;5.15;;;3.60;;
64643;SDS011;51056;50.330;7.914;2023-07-09T13:45:22;8.68;;;4.10;;
64643;SDS011;51056;50.330;7.914;2023-07-09T13:48:30;7.90;;;4.10;;
64643;SDS011;51056;50.330;7.914;2023-07-09T13:51:34;7.10;;;3.85;;
64643;SDS011;51056;50.330;7.914;2023-07-09T13:54:39;8.88;;;4.22;;
64643;SDS011;51056;50.330;7.914;2023-07-09T14:01:25;7.10;;;4.47;;
64643;SDS011;51056;50.330;7.914;2023-07-09T14:04:30;5.97;;;3.38;;
64643;SDS011;51056;50.330;7.914;2023-07-09T14:07:39;6.65;;;3.42;;
64643;SDS011;51056;50.330;7.914;2023-07-09T14:10:44;6.15;;;3.47;;
64643;SDS011;51056;50.330;7.914;2023-07-09T14:13:48;7.90;;;3.80;;
64643;SDS011;51056;50.330;7.914;2023-07-09T14:16:52;8.90;;;4.28;;
64643;SDS011;51056;50.330;7.914;2023-07-09T14:20:05;7.50;;;4.07;;
64643;SDS011;51056;50.330;7.914;2023-07-09T14:23:19;8.32;;;3.70;;
64643;SDS011;51056;50.330;7.914;2023-07-09T14:26:23;7.88;;;3.83;;
64643;SDS011;51056;50.330;7.914;2023-07-09T14:29:26;6.95;;;3.90;;
64643;SDS011;51056;50.330;7.914;2023-07-09T14:32:34;7.80;;;4.18;;
64643;SDS011;51056;50.330;7.914;2023-07-09T14:35:47;8.02;;;3.42;;
64643;SDS011;51056;50.330;7.914;2023-07-09T14:38:52;7.90;;;3.50;;
64643;SDS011;51056;50.330;7.914;2023-07-09T14:41:57;8.65;;;4.32;;
64643;SDS011;51056;50.330;7.914;2023-07-09T14:45:01;10.85;;;4.50;;
64643;SDS011;51056;50.330;7.914;2023-07-09T14:48:12;12.23;;;4.35;;
64643;SDS011;51056;50.330;7.914;2023-07-09T14:51:20;9.07;;;4.45;;
64643;SDS011;51056;50.330;7.914;2023-07-09T14:54:25;4.93;;;3.85;;
64643;SDS011;51056;50.330;7.914;2023-07-09T14:57:30;8.40;;;3.70;;
64643;SDS011;51056;50.330;7.914;2023-07-09T15:00:37;9.57;;;4.50;;
64643;SDS011;51056;50.330;7.914;2023-07-09T15:03:44;8.45;;;4.35;;
64643;SDS011;51056;50.330;7.914;2023-07-09T15:06:51;12.02;;;4.40;;
64643;SDS011;51056;50.330;7.914;2023-07-09T15:09:57;10.15;;;5.00;;
64643;SDS011;51056;50.330;7.914;2023-07-09T15:13:03;9.50;;;4.05;;
64643;SDS011;51056;50.330;7.914;2023-07-09T15:16:07;7.65;;;4.32;;
64643;SDS011;51056;50.330;7.914;2023-07-09T15:19:15;8.15;;;4.07;;
64643;SDS011;51056;50.330;7.914;2023-07-09T15:22:24;9.27;;;4.15;;
64643;SDS011;51056;50.330;7.914;2023-07-09T15:25:33;7.82;;;3.75;;
64643;SDS011;51056;50.330;7.914;2023-07-09T15:28:37;7.93;;;4.00;;
64643;SDS011;51056;50.330;7.914;2023-07-09T15:31:40;8.73;;;4.38;;
64643;SDS011;51056;50.330;7.914;2023-07-09T15:34:47;13.10;;;3.88;;
64643;SDS011;51056;50.330;7.914;2023-07-09T15:37:50;11.75;;;3.72;;
64643;SDS011;51056;50.330;7.914;2023-07-09T15:40:54;11.07;;;4.05;;
64643;SDS011;51056;50.330;7.914;2023-07-09T15:43:58;13.50;;;3.85;;
64643;SDS011;51056;50.330;7.914;2023-07-09T15:47:02;8.48;;;3.55;;
64643;SDS011;51056;50.330;7.914;2023-07-09T15:50:17;10.93;;;3.67;;
64643;SDS011;51056;50.330;7.914;2023-07-09T15:53:31;6.55;;;3.45;;
64643;SDS011;51056;50.330;7.914;2023-07-09T15:56:43;8.77;;;4.28;;
64643;SDS011;51056;50.330;7.914;2023-07-09T15:59:49;12.13;;;3.95;;
64643;SDS011;51056;50.330;7.914;2023-07-09T16:02:53;9.77;;;4.10;;
64643;SDS011;51056;50.330;7.914;2023-07-09T16:06:36;9.40;;;3.63;;
64643;SDS011;51056;50.330;7.914;2023-07-09T16:09:43;10.18;;;4.38;;
64643;SDS011;51056;50.330;7.914;2023-07-09T16:12:53;11.75;;;6.13;;
64643;SDS011;51056;50.330;7.914;2023-07-09T16:15:56;11.88;;;3.70;;
64643;SDS011;51056;50.330;7.914;2023-07-09T16:19:00;8.85;;;3.97;;
64643;SDS011;51056;50.330;7.914;2023-07-09T16:22:04;15.60;;;3.42;;
64643;SDS011;51056;50.330;7.914;2023-07-09T16:25:12;10.05;;;3.22;;
64643;SDS011;51056;50.330;7.914;2023-07-09T16:28:19;9.55;;;3.70;;
64643;SDS011;51056;50.330;7.914;2023-07-09T16:31:27;12.73;;;3.92;;
64643;SDS011;51056;50.330;7.914;2023-07-09T16:34:45;11.90;;;3.47;;
64643;SDS011;51056;50.330;7.914;2023-07-09T16:37:57;27.80;;;3.50;;
64643;SDS011;51056;50.330;7.914;2023-07-09T16:41:01;11.60;;;3.67;;
64643;SDS011;51056;50.330;7.914;2023-07-09T16:44:09;14.40;;;3.40;;
64643;SDS011;51056;50.330;7.914;2023-07-09T16:47:17;8.80;;;3.25;;
64643;SDS011;51056;50.330;7.914;2023-07-09T16:50:25;7.18;;;3.30;;
64643;SDS011;51056;50.330;7.914;2023-07-09T16:53:30;14.68;;;4.15;;
64643;SDS011;51056;50.330;7.914;2023-07-09T16:56:34;9.75;;;3.53;;
64643;SDS011;51056;50.330;7.914;2023-07-09T16:59:39;6.30;;;2.90;;
64643;SDS011;51056;50.330;7.914;2023-07-09T17:02:49;9.25;;;3.30;;
64643;SDS011;51056;50.330;7.914;2023-07-09T17:05:54;8.45;;;3.35;;
64643;SDS011;51056;50.330;7.914;2023-07-09T17:08:58;8.88;;;3.55;;
64643;SDS011;51056;50.330;7.914;2023-07-09T17:12:02;5.40;;;3.65;;
64643;SDS011;51056;50.330;7.914;2023-07-09T17:15:19;7.03;;;3.20;;
64643;SDS011;51056;50.330;7.914;2023-07-09T17:18:27;6.22;;;2.85;;
64643;SDS011;51056;50.330;7.914;2023-07-09T17:21:32;5.35;;;3.00;;
64643;SDS011;51056;50.330;7.914;2023-07-09T17:24:35;7.35;;;3.40;;
64643;SDS011;51056;50.330;7.914;2023-07-09T17:27:38;5.78;;;2.88;;
64643;SDS011;51056;50.330;7.914;2023-07-09T17:30:42;7.78;;;2.97;;
64643;SDS011;51056;50.330;7.914;2023-07-09T17:33:46;5.85;;;3.45;;
64643;SDS011;51056;50.330;7.914;2023-07-09T17:36:49;6.30;;;3.38;;
64643;SDS011;51056;50.330;7.914;2023-07-09T17:39:54;6.85;;;3.53;;
64643;SDS011;51056;50.330;7.914;2023-07-09T17:42:58;8.45;;;3.35;;
64643;SDS011;51056;50.330;7.914;2023-07-09T17:46:02;5.10;;;3.13;;
64643;SDS011;51056;50.330;7.914;2023-07-09T17:49:25;7.43;;;2.90;;
64643;SDS011;51056;50.330;7.914;2023-07-09T17:52:29;6.00;;;2.72;;
64643;SDS011;51056;50.330;7.914;2023-07-09T17:55:39;8.90;;;3.50;;
64643;SDS011;51056;50.330;7.914;2023-07-09T17:58:45;4.82;;;2.80;;
64643;SDS011;51056;50.330;7.914;2023-07-09T18:01:58;6.53;;;3.40;;
64643;SDS011;51056;50.330;7.914;2023-07-09T18:05:46;5.95;;;3.47;;
64643;SDS011;51056;50.330;7.914;2023-07-09T18:09:24;6.70;;;3.35;;
64643;SDS011;51056;50.330;7.914;2023-07-09T18:16:54;7.03;;;2.80;;
64643;SDS011;51056;50.330;7.914;2023-07-09T18:19:58;6.88;;;3.22;;
64643;SDS011;51056;50.330;7.914;2023-07-09T18:23:27;5.53;;;2.75;;
64643;SDS011;51056;50.330;7.914;2023-07-09T18:26:50;8.35;;;3.35;;
64643;SDS011;51056;50.330;7.914;2023-07-09T18:38:41;5.22;;;3.08;;
64643;SDS011;51056;50.330;7.914;2023-07-09T18:41:45;5.20;;;3.10;;
64643;SDS011;51056;50.330;7.914;2023-07-09T18:44:48;5.13;;;3.22;;
64643;SDS011;51056;50.330;7.914;2023-07-09T18:47:52;6.03;;;3.30;;
64643;SDS011;51056;50.330;7.914;2023-07-09T18:50:57;9.75;;;3.08;;
64643;SDS011;51056;50.330;7.914;2023-07-09T18:54:07;7.40;;;2.90;;
64643;SDS011;51056;50.330;7.914;2023-07-09T18:57:13;7.22;;;2.78;;
64643;SDS011;51056;50.330;7.914;2023-07-09T19:00:17;9.60;;;3.22;;
64643;SDS011;51056;50.330;7.914;2023-07-09T19:03:22;9.90;;;3.92;;
64643;SDS011;51056;50.330;7.914;2023-07-09T19:06:29;6.25;;;3.05;;
64643;SDS011;51056;50.330;7.914;2023-07-09T19:09:41;8.02;;;3.13;;
64643;SDS011;51056;50.330;7.914;2023-07-09T19:12:46;7.55;;;3.85;;
64643;SDS011;51056;50.330;7.914;2023-07-09T19:15:52;5.63;;;3.00;;
64643;SDS011;51056;50.330;7.914;2023-07-09T19:19:04;7.82;;;3.10;;
64643;SDS011;51056;50.330;7.914;2023-07-09T19:22:33;6.43;;;3.10;;
64643;SDS011;51056;50.330;7.914;2023-07-09T19:26:00;8.30;;;3.38;;
64643;SDS011;51056;50.330;7.914;2023-07-09T19:29:25;8.15;;;3.45;;
64643;SDS011;51056;50.330;7.914;2023-07-09T19:32:36;7.25;;;4.07;;
64643;SDS011;51056;50.330;7.914;2023-07-09T19:35:48;7.20;;;3.70;;
64643;SDS011;51056;50.330;7.914;2023-07-09T19:38:55;5.45;;;3.20;;
64643;SDS011;51056;50.330;7.914;2023-07-09T19:42:05;8.45;;;3.50;;
64643;SDS011;51056;50.330;7.914;2023-07-09T19:48:28;5.63;;;3.25;;
64643;SDS011;51056;50.330;7.914;2023-07-09T19:54:56;9.85;;;4.00;;
64643;SDS011;51056;50.330;7.914;2023-07-09T19:58:02;8.80;;;4.03;;
64643;SDS011;51056;50.330;7.914;2023-07-09T20:01:12;10.48;;;3.58;;
64643;SDS011;51056;50.330;7.914;2023-07-09T20:04:16;8.63;;;3.58;;
64643;SDS011;51056;50.330;7.914;2023-07-09T20:07:19;5.15;;;2.97;;
64643;SDS011;51056;50.330;7.914;2023-07-09T20:10:23;6.00;;;3.70;;
64643;SDS011;51056;50.330;7.914;2023-07-09T20:13:29;7.63;;;4.00;;
64643;SDS011;51056;50.330;7.914;2023-07-09T20:16:34;5.90;;;3.30;;